Time;durP1;ratioP1;P1;durP2;ratioP2;P2;SDS_P1;SDS_P2;PMS_P1;PMS_P2;Temp;Humidity;BMP_temperature;BMP_pressure;BME280_temperature;BME280_humidity;BME280_pressure;Samples;Min_cycle;Max_cycle;Signal;HPM_P1;HPM_P2
2023/01/27 00:01:09;;;;;;;19.33;10.53;;;;;;;;;;5041758;28;20543;-53
2023/01/27 00:03:35;;;;;;;17.63;9.17;;;;;;;;;;5039262;28;21037;-54
2023/01/27 00:06:05;;;;;;;21.30;10.80;;;;;;;;;;5044042;28;20250;-53
2023/01/27 00:08:31;;;;;;;18.13;9.87;;;;;;;;;;5040611;28;20235;-52
2023/01/27 00:13:38;;;;;;;13.13;8.00;;;;;;;;;;5037156;28;20231;-52
2023/01/27 00:16:05;;;;;;;15.97;9.47;;;;;;;;;;5043353;28;20240;-52
2023/01/27 00:18:31;;;;;;;16.60;8.67;;;;;;;;;;5041641;28;20339;-53
2023/01/27 00:26:26;;;;;;;15.60;9.73;;;;;;;;;;5040243;28;20249;-52
2023/01/27 00:28:53;;;;;;;16.53;9.27;;;;;;;;;;5037141;28;20311;-52
2023/01/27 00:34:09;;;;;;;14.13;9.17;;;;;;;;;;5047710;28;20243;-56
2023/01/27 00:36:36;;;;;;;13.70;8.03;;;;;;;;;;5039092;28;20557;-52
2023/01/27 00:39:04;;;;;;;16.97;9.27;;;;;;;;;;5049172;28;20223;-52
2023/01/27 00:41:32;;;;;;;16.90;8.93;;;;;;;;;;5051355;28;20731;-52
2023/01/27 00:43:59;;;;;;;14.67;9.10;;;;;;;;;;5050487;28;20230;-52
2023/01/27 00:46:25;;;;;;;15.63;8.27;;;;;;;;;;5036011;28;20246;-52
2023/01/27 00:48:52;;;;;;;17.87;9.60;;;;;;;;;;5043930;28;20593;-53
2023/01/27 00:51:18;;;;;;;12.23;7.83;;;;;;;;;;5032432;28;20266;-53
2023/01/27 00:53:45;;;;;;;14.03;8.97;;;;;;;;;;5045058;28;20625;-52
2023/01/27 00:56:13;;;;;;;12.53;7.87;;;;;;;;;;5027695;28;20243;-52
2023/01/27 00:58:39;;;;;;;12.40;7.50;;;;;;;;;;5036320;28;20228;-54
2023/01/27 01:01:06;;;;;;;13.40;8.87;;;;;;;;;;5035314;28;20243;-52
2023/01/27 01:03:34;;;;;;;14.67;7.93;;;;;;;;;;5037003;28;20238;-53
2023/01/27 01:06:01;;;;;;;11.20;7.10;;;;;;;;;;5035021;28;20253;-52
2023/01/27 01:08:28;;;;;;;11.97;8.10;;;;;;;;;;5032685;28;20716;-52
2023/01/27 01:10:54;;;;;;;9.47;6.63;;;;;;;;;;5035759;28;20313;-52
2023/01/27 01:13:22;;;;;;;13.13;8.20;;;;;;;;;;5038221;28;20682;-52
2023/01/27 01:15:48;;;;;;;12.07;7.10;;;;;;;;;;5039499;28;20245;-55
2023/01/27 01:18:15;;;;;;;11.20;8.37;;;;;;;;;;5031846;28;20238;-52
2023/01/27 01:20:43;;;;;;;13.00;6.87;;;;;;;;;;5033701;28;20238;-52
2023/01/27 01:23:09;;;;;;;10.63;7.63;;;;;;;;;;5042221;28;20242;-53
2023/01/27 01:25:36;;;;;;;9.63;6.03;;;;;;;;;;5041325;28;20237;-52
2023/01/27 01:28:02;;;;;;;10.53;6.53;;;;;;;;;;5037096;28;20227;-53
2023/01/27 01:30:30;;;;;;;13.27;7.47;;;;;;;;;;5035675;28;20622;-52
2023/01/27 01:32:57;;;;;;;10.23;6.60;;;;;;;;;;5038922;28;20237;-52
2023/01/27 01:35:24;;;;;;;12.30;6.77;;;;;;;;;;5034572;28;20736;-53
2023/01/27 01:37:50;;;;;;;9.30;7.00;;;;;;;;;;5034247;28;20241;-53
2023/01/27 01:40:17;;;;;;;11.13;7.80;;;;;;;;;;5041064;28;20234;-53
2023/01/27 01:43:01;;;;;;;11.63;7.23;;;;;;;;;;5042918;28;20230;-52
2023/01/27 01:45:48;;;;;;;12.23;6.43;;;;;;;;;;5034238;28;20314;-54
2023/01/27 01:48:16;;;;;;;8.77;6.00;;;;;;;;;;5043369;28;20235;-52
2023/01/27 01:50:44;;;;;;;11.63;7.77;;;;;;;;;;5045705;28;20226;-52
2023/01/27 01:53:11;;;;;;;13.30;7.87;;;;;;;;;;5042845;28;20227;-52
2023/01/27 01:55:39;;;;;;;10.93;7.53;;;;;;;;;;5042144;28;20247;-55
2023/01/27 01:58:06;;;;;;;10.67;7.67;;;;;;;;;;5041997;28;20600;-54
2023/01/27 02:00:33;;;;;;;11.77;7.20;;;;;;;;;;5041101;28;20241;-54
2023/01/27 02:03:01;;;;;;;10.63;7.47;;;;;;;;;;5038474;28;20236;-53
2023/01/27 02:05:29;;;;;;;11.80;6.03;;;;;;;;;;5035957;28;20233;-54
2023/01/27 02:07:57;;;;;;;12.47;8.40;;;;;;;;;;5039214;28;20238;-52
2023/01/27 02:10:24;;;;;;;12.77;7.43;;;;;;;;;;5047087;28;20908;-54
2023/01/27 02:12:51;;;;;;;12.80;7.63;;;;;;;;;;5058789;28;20232;-53
2023/01/27 02:15:17;;;;;;;11.00;7.40;;;;;;;;;;5061474;28;20314;-53
2023/01/27 02:17:44;;;;;;;12.80;8.03;;;;;;;;;;5058900;28;20274;-53
2023/01/27 02:20:15;;;;;;;9.77;7.33;;;;;;;;;;5046654;28;20239;-52
2023/01/27 02:22:47;;;;;;;12.70;8.03;;;;;;;;;;5040820;28;20290;-53
2023/01/27 02:25:17;;;;;;;13.80;8.30;;;;;;;;;;5045152;28;20744;-52
2023/01/27 02:27:44;;;;;;;11.83;7.53;;;;;;;;;;5043053;28;20922;-54
2023/01/27 02:30:11;;;;;;;14.23;7.43;;;;;;;;;;5037107;28;20318;-51
2023/01/27 02:32:37;;;;;;;10.67;7.17;;;;;;;;;;5043836;28;20747;-51
2023/01/27 02:35:05;;;;;;;14.17;7.77;;;;;;;;;;5034306;28;20319;-52
2023/01/27 02:37:32;;;;;;;12.27;7.93;;;;;;;;;;5036388;28;20242;-53
2023/01/27 02:40:00;;;;;;;13.63;7.37;;;;;;;;;;5042876;28;20792;-52
2023/01/27 02:42:27;;;;;;;12.33;7.60;;;;;;;;;;5041681;28;20239;-53
2023/01/27 02:44:54;;;;;;;13.47;9.07;;;;;;;;;;5042079;28;20232;-53
2023/01/27 02:47:21;;;;;;;15.33;8.83;;;;;;;;;;5054973;28;20238;-55
2023/01/27 02:49:48;;;;;;;12.13;7.83;;;;;;;;;;5027242;28;20267;-52
2023/01/27 02:52:14;;;;;;;14.87;7.73;;;;;;;;;;5044574;28;20235;-53
2023/01/27 02:54:41;;;;;;;13.13;8.27;;;;;;;;;;5037128;28;20234;-52
2023/01/27 02:57:07;;;;;;;12.10;7.10;;;;;;;;;;5045110;28;20246;-52
2023/01/27 02:59:33;;;;;;;16.83;8.03;;;;;;;;;;5038903;28;20223;-53
2023/01/27 03:02:02;;;;;;;13.97;7.07;;;;;;;;;;5042218;28;20227;-53
2023/01/27 03:04:29;;;;;;;14.77;7.77;;;;;;;;;;5045130;28;20413;-53
2023/01/27 03:06:55;;;;;;;12.37;6.83;;;;;;;;;;5044820;28;20333;-52
2023/01/27 03:09:21;;;;;;;14.73;8.17;;;;;;;;;;5043485;28;20251;-52
2023/01/27 03:20:01;;;;;;;13.77;8.67;;;;;;;;;;5031289;28;21000;-54
2023/01/27 03:22:27;;;;;;;13.60;7.67;;;;;;;;;;5022435;28;20253;-54
2023/01/27 03:24:53;;;;;;;16.53;8.80;;;;;;;;;;5040211;28;20232;-52
2023/01/27 03:27:20;;;;;;;13.40;8.13;;;;;;;;;;5035416;28;20263;-52
2023/01/27 03:29:55;;;;;;;12.47;7.87;;;;;;;;;;5033823;28;20232;-52
2023/01/27 03:32:23;;;;;;;14.10;7.67;;;;;;;;;;5040660;28;20223;-53
2023/01/27 03:34:49;;;;;;;11.30;6.60;;;;;;;;;;5034645;28;20336;-53
2023/01/27 03:48:13;;;;;;;12.67;7.83;;;;;;;;;;5036567;28;20259;-52
2023/01/27 03:50:42;;;;;;;13.17;6.83;;;;;;;;;;5040104;28;20235;-51
2023/01/27 03:53:08;;;;;;;17.33;8.77;;;;;;;;;;5031321;28;20330;-52
2023/01/27 03:55:36;;;;;;;13.67;7.50;;;;;;;;;;5038005;28;20239;-52
2023/01/27 03:58:16;;;;;;;14.27;7.27;;;;;;;;;;5041252;28;20365;-53
2023/01/27 04:00:43;;;;;;;11.23;7.13;;;;;;;;;;5039962;28;20293;-51
2023/01/27 04:08:42;;;;;;;11.20;6.33;;;;;;;;;;5040157;28;20234;-54
2023/01/27 04:13:52;;;;;;;13.60;7.33;;;;;;;;;;5038438;28;20241;-52
2023/01/27 04:16:19;;;;;;;14.07;7.53;;;;;;;;;;5038957;28;20316;-62
2023/01/27 04:18:46;;;;;;;12.30;7.20;;;;;;;;;;5037811;28;20231;-53
2023/01/27 04:21:14;;;;;;;15.23;7.87;;;;;;;;;;5041456;28;20239;-52
2023/01/27 04:23:41;;;;;;;14.20;8.03;;;;;;;;;;5038968;28;20240;-53
2023/01/27 04:26:07;;;;;;;13.37;8.43;;;;;;;;;;5017469;28;20245;-53
2023/01/27 04:28:34;;;;;;;14.03;7.40;;;;;;;;;;5037915;28;20325;-53
2023/01/27 04:31:00;;;;;;;12.53;7.33;;;;;;;;;;5045112;28;20238;-52
2023/01/27 04:33:27;;;;;;;10.27;6.80;;;;;;;;;;5049514;28;20242;-56
2023/01/27 04:35:53;;;;;;;11.57;7.13;;;;;;;;;;5051281;28;20326;-53
2023/01/27 04:38:21;;;;;;;13.27;7.83;;;;;;;;;;5050148;28;20282;-53
2023/01/27 04:40:47;;;;;;;10.87;6.60;;;;;;;;;;5039927;28;20236;-53
2023/01/27 04:43:14;;;;;;;11.47;7.47;;;;;;;;;;5042334;28;20253;-55
2023/01/27 04:45:41;;;;;;;8.80;6.40;;;;;;;;;;5046200;28;20727;-53
2023/01/27 04:48:07;;;;;;;12.20;7.33;;;;;;;;;;5043440;28;20236;-52
2023/01/27 04:50:45;;;;;;;8.73;6.07;;;;;;;;;;5052073;28;20241;-54
2023/01/27 04:53:11;;;;;;;10.37;6.30;;;;;;;;;;5043564;28;20235;-52
2023/01/27 04:55:40;;;;;;;10.67;6.50;;;;;;;;;;5051583;28;20535;-52
2023/01/27 04:58:06;;;;;;;11.37;7.13;;;;;;;;;;5053465;28;20254;-52
2023/01/27 05:00:33;;;;;;;9.80;6.17;;;;;;;;;;5044084;28;20714;-59
2023/01/27 05:02:59;;;;;;;8.93;6.17;;;;;;;;;;5049464;28;20250;-53
2023/01/27 05:05:26;;;;;;;14.77;7.17;;;;;;;;;;5053948;28;20590;-58
2023/01/27 05:07:52;;;;;;;10.43;6.40;;;;;;;;;;5054918;28;20224;-52
2023/01/27 05:10:19;;;;;;;8.73;5.57;;;;;;;;;;5052387;28;20272;-56
2023/01/27 05:12:47;;;;;;;13.10;6.50;;;;;;;;;;5056204;28;20251;-53
2023/01/27 05:15:13;;;;;;;13.63;6.00;;;;;;;;;;5049857;28;20805;-52
2023/01/27 05:17:40;;;;;;;12.80;6.83;;;;;;;;;;5046129;28;20238;-52
2023/01/27 05:20:06;;;;;;;9.83;6.20;;;;;;;;;;5031985;28;20240;-53
2023/01/27 05:22:33;;;;;;;10.40;6.73;;;;;;;;;;5046346;28;20362;-52
2023/01/27 05:25:00;;;;;;;10.53;6.83;;;;;;;;;;5039279;28;20265;-52
2023/01/27 05:27:26;;;;;;;10.77;6.90;;;;;;;;;;5041839;28;20245;-51
2023/01/27 05:29:54;;;;;;;14.07;7.87;;;;;;;;;;5045847;28;20230;-52
2023/01/27 05:32:20;;;;;;;11.40;6.73;;;;;;;;;;5048044;28;20826;-53
2023/01/27 05:34:47;;;;;;;9.97;5.87;;;;;;;;;;5043475;28;20659;-54
2023/01/27 05:37:13;;;;;;;12.10;7.17;;;;;;;;;;5046164;28;20657;-52
2023/01/27 05:39:40;;;;;;;12.13;7.33;;;;;;;;;;5046425;28;20262;-54
2023/01/27 05:42:06;;;;;;;10.50;6.70;;;;;;;;;;5043651;28;20243;-53
2023/01/27 05:44:33;;;;;;;13.27;8.10;;;;;;;;;;5045569;28;20235;-54
2023/01/27 05:47:01;;;;;;;11.30;6.73;;;;;;;;;;5041713;28;20721;-55
2023/01/27 05:49:27;;;;;;;12.27;7.33;;;;;;;;;;5037984;28;20238;-53
2023/01/27 05:51:54;;;;;;;12.70;7.83;;;;;;;;;;5045568;28;20907;-52
2023/01/27 05:54:21;;;;;;;14.80;7.67;;;;;;;;;;5046443;28;20236;-53
2023/01/27 05:56:47;;;;;;;12.00;7.73;;;;;;;;;;5046861;28;20231;-53
2023/01/27 05:59:13;;;;;;;11.87;7.40;;;;;;;;;;5041841;28;20259;-52
2023/01/27 06:01:40;;;;;;;13.30;7.17;;;;;;;;;;5054398;28;20231;-52
2023/01/27 06:04:09;;;;;;;10.03;6.80;;;;;;;;;;5063048;28;20673;-52
2023/01/27 06:06:36;;;;;;;11.70;6.40;;;;;;;;;;5056776;28;20822;-54
2023/01/27 06:09:02;;;;;;;10.87;6.83;;;;;;;;;;5058353;28;20331;-53
2023/01/27 06:11:29;;;;;;;13.70;7.67;;;;;;;;;;5041527;28;20237;-52
2023/01/27 06:13:55;;;;;;;11.90;7.00;;;;;;;;;;5047146;28;20310;-53
2023/01/27 06:16:22;;;;;;;10.90;6.77;;;;;;;;;;5031688;28;20280;-53
2023/01/27 06:18:49;;;;;;;11.93;7.80;;;;;;;;;;5042391;28;20239;-52
2023/01/27 06:21:17;;;;;;;12.07;7.23;;;;;;;;;;5045172;28;20235;-53
2023/01/27 06:23:43;;;;;;;12.63;6.87;;;;;;;;;;5042208;28;20235;-52
2023/01/27 06:26:11;;;;;;;9.80;7.07;;;;;;;;;;5040387;28;20263;-52
2023/01/27 06:28:37;;;;;;;11.30;6.23;;;;;;;;;;5042516;28;20246;-52
2023/01/27 06:31:04;;;;;;;9.77;7.00;;;;;;;;;;5041954;28;20929;-52
2023/01/27 06:33:31;;;;;;;13.43;6.73;;;;;;;;;;5043605;28;20224;-52
2023/01/27 06:36:01;;;;;;;12.87;6.77;;;;;;;;;;5042582;28;20612;-52
2023/01/27 06:38:28;;;;;;;9.07;6.17;;;;;;;;;;5044596;28;20310;-52
2023/01/27 06:40:55;;;;;;;10.73;6.83;;;;;;;;;;5040661;28;20238;-53
2023/01/27 06:43:21;;;;;;;10.03;6.63;;;;;;;;;;5044823;28;20235;-52
2023/01/27 06:45:49;;;;;;;13.40;6.73;;;;;;;;;;5037001;28;20245;-52
2023/01/27 06:48:15;;;;;;;15.93;7.83;;;;;;;;;;5042450;28;20236;-53
2023/01/27 06:50:42;;;;;;;13.20;6.63;;;;;;;;;;5041022;28;20258;-52
2023/01/27 06:53:09;;;;;;;14.50;7.93;;;;;;;;;;5042430;28;20720;-54
2023/01/27 06:55:40;;;;;;;14.13;7.60;;;;;;;;;;5035418;28;20292;-52
2023/01/27 06:58:07;;;;;;;10.70;7.10;;;;;;;;;;5040750;28;20724;-53
2023/01/27 07:00:34;;;;;;;15.70;7.53;;;;;;;;;;5044010;28;20314;-52
2023/01/27 07:03:00;;;;;;;12.20;7.13;;;;;;;;;;5036448;28;20758;-53
2023/01/27 07:05:27;;;;;;;12.87;6.87;;;;;;;;;;5046645;28;20673;-52
2023/01/27 07:07:53;;;;;;;12.90;7.47;;;;;;;;;;5038488;28;20236;-53
2023/01/27 07:10:20;;;;;;;12.67;7.27;;;;;;;;;;5032765;28;20335;-52
2023/01/27 07:12:48;;;;;;;11.83;7.90;;;;;;;;;;5044681;28;20234;-52
2023/01/27 07:15:14;;;;;;;11.17;7.20;;;;;;;;;;5043982;28;20305;-53
2023/01/27 07:17:41;;;;;;;13.23;7.37;;;;;;;;;;5037384;28;20240;-53
2023/01/27 07:20:09;;;;;;;12.30;8.23;;;;;;;;;;5037406;28;21297;-53
2023/01/27 07:22:36;;;;;;;12.20;8.00;;;;;;;;;;5037396;28;20237;-53
2023/01/27 07:25:03;;;;;;;15.90;8.73;;;;;;;;;;5035973;28;20239;-54
2023/01/27 07:27:29;;;;;;;12.40;7.43;;;;;;;;;;5036990;28;20250;-53
2023/01/27 07:29:57;;;;;;;12.87;7.93;;;;;;;;;;5037559;28;20799;-53
2023/01/27 07:32:24;;;;;;;12.13;7.23;;;;;;;;;;5033154;28;20238;-53
2023/01/27 07:34:50;;;;;;;10.10;6.77;;;;;;;;;;5037139;28;20242;-53
2023/01/27 07:37:16;;;;;;;14.17;7.67;;;;;;;;;;5032089;28;20297;-53
2023/01/27 07:39:43;;;;;;;10.13;6.80;;;;;;;;;;5040172;28;20239;-52
2023/01/27 07:42:09;;;;;;;12.43;6.80;;;;;;;;;;5052910;28;20257;-54
2023/01/27 07:44:36;;;;;;;10.17;6.73;;;;;;;;;;5050511;28;20237;-53
2023/01/27 07:47:05;;;;;;;11.17;6.80;;;;;;;;;;5021897;28;20240;-52
2023/01/27 07:49:31;;;;;;;11.13;6.50;;;;;;;;;;5022820;28;20228;-53
2023/01/27 07:51:57;;;;;;;14.47;7.10;;;;;;;;;;5032397;28;20675;-53
2023/01/27 07:54:24;;;;;;;12.13;7.50;;;;;;;;;;5022641;28;20232;-52
2023/01/27 07:56:50;;;;;;;11.50;6.77;;;;;;;;;;5031899;28;20247;-52
2023/01/27 07:59:17;;;;;;;9.83;6.73;;;;;;;;;;5045439;28;20226;-53
2023/01/27 08:01:43;;;;;;;13.87;7.73;;;;;;;;;;5030215;28;20234;-53
2023/01/27 08:04:11;;;;;;;14.10;8.60;;;;;;;;;;5041142;28;21708;-53
2023/01/27 08:06:39;;;;;;;15.23;8.30;;;;;;;;;;5041587;28;20248;-52
2023/01/27 08:09:05;;;;;;;12.23;8.37;;;;;;;;;;5034866;28;20243;-52
2023/01/27 08:11:32;;;;;;;13.10;9.67;;;;;;;;;;5043037;28;20230;-53
2023/01/27 08:13:58;;;;;;;13.17;9.43;;;;;;;;;;5038528;28;20772;-52
2023/01/27 08:16:25;;;;;;;13.53;7.90;;;;;;;;;;5024896;28;20757;-53
2023/01/27 08:18:52;;;;;;;12.67;7.47;;;;;;;;;;5040094;28;20318;-54
2023/01/27 08:21:20;;;;;;;13.90;8.90;;;;;;;;;;5033680;28;20635;-53
2023/01/27 08:23:47;;;;;;;13.30;7.50;;;;;;;;;;5041721;28;20714;-52
2023/01/27 08:26:14;;;;;;;15.57;9.00;;;;;;;;;;5040607;28;20250;-53
2023/01/27 08:28:40;;;;;;;9.67;7.23;;;;;;;;;;5040728;28;21747;-51
2023/01/27 08:31:08;;;;;;;11.60;8.03;;;;;;;;;;5031987;28;20231;-52
2023/01/27 08:33:34;;;;;;;10.37;6.63;;;;;;;;;;5034734;28;20775;-52
2023/01/27 08:36:03;;;;;;;8.93;6.23;;;;;;;;;;5041594;28;20234;-53
2023/01/27 08:38:33;;;;;;;7.67;6.00;;;;;;;;;;5044394;28;20266;-52
2023/01/27 08:41:02;;;;;;;9.80;6.53;;;;;;;;;;5040350;28;20235;-52
2023/01/27 08:43:29;;;;;;;8.77;6.70;;;;;;;;;;5045290;28;20231;-52
2023/01/27 08:45:55;;;;;;;8.67;6.00;;;;;;;;;;5031807;28;21238;-53
2023/01/27 08:48:22;;;;;;;9.17;6.70;;;;;;;;;;5037392;28;20238;-52
2023/01/27 08:50:50;;;;;;;10.03;6.03;;;;;;;;;;5035003;28;20732;-54
2023/01/27 08:53:16;;;;;;;11.97;6.47;;;;;;;;;;5035694;28;20255;-52
2023/01/27 08:55:44;;;;;;;7.53;5.87;;;;;;;;;;5039032;28;20249;-54
2023/01/27 08:58:11;;;;;;;8.30;5.00;;;;;;;;;;5040650;28;20326;-53
2023/01/27 09:00:37;;;;;;;8.07;5.50;;;;;;;;;;5031950;28;20239;-54
2023/01/27 09:03:04;;;;;;;9.50;6.17;;;;;;;;;;5038353;28;20310;-53
2023/01/27 09:05:30;;;;;;;9.30;5.27;;;;;;;;;;5032139;28;20293;-53
2023/01/27 09:07:56;;;;;;;11.03;5.60;;;;;;;;;;5035169;28;20813;-52
2023/01/27 09:10:23;;;;;;;7.47;5.50;;;;;;;;;;5041543;28;20247;-53
2023/01/27 09:12:51;;;;;;;8.30;6.23;;;;;;;;;;5036939;28;20315;-53
2023/01/27 09:15:17;;;;;;;5.70;5.07;;;;;;;;;;5034856;28;20226;-52
2023/01/27 09:17:44;;;;;;;5.93;5.33;;;;;;;;;;5038904;28;20250;-52
2023/01/27 09:20:11;;;;;;;6.30;5.20;;;;;;;;;;5034339;28;20243;-54
2023/01/27 09:22:39;;;;;;;8.53;4.83;;;;;;;;;;5030809;28;20242;-54
2023/01/27 09:25:05;;;;;;;8.37;4.80;;;;;;;;;;5035785;28;20316;-53
2023/01/27 09:27:32;;;;;;;9.83;5.87;;;;;;;;;;5036286;28;20243;-52
2023/01/27 09:30:00;;;;;;;8.67;5.43;;;;;;;;;;5039396;28;20810;-54
2023/01/27 09:32:26;;;;;;;5.70;5.03;;;;;;;;;;5035806;28;20232;-53
2023/01/27 09:34:52;;;;;;;7.40;5.17;;;;;;;;;;5040131;28;20617;-54
2023/01/27 09:37:19;;;;;;;6.20;4.70;;;;;;;;;;5039609;28;20234;-53
2023/01/27 09:39:47;;;;;;;8.27;5.37;;;;;;;;;;5028155;28;20606;-51
2023/01/27 09:42:19;;;;;;;6.60;4.23;;;;;;;;;;5029473;28;20234;-53
2023/01/27 09:44:55;;;;;;;8.93;4.83;;;;;;;;;;5031769;28;20235;-54
2023/01/27 09:47:28;;;;;;;5.47;3.83;;;;;;;;;;5034952;28;20249;-52
2023/01/27 09:50:04;;;;;;;7.50;4.30;;;;;;;;;;5038437;28;20322;-53
2023/01/27 09:52:40;;;;;;;7.37;4.93;;;;;;;;;;5037704;28;20242;-53
2023/01/27 09:55:12;;;;;;;5.93;4.97;;;;;;;;;;5039032;28;20312;-54
2023/01/27 09:57:46;;;;;;;8.17;5.07;;;;;;;;;;5034914;28;20289;-52
2023/01/27 10:00:18;;;;;;;5.20;4.70;;;;;;;;;;5033440;28;20987;-53
2023/01/27 10:03:08;;;;;;;7.53;5.27;;;;;;;;;;5033890;28;20755;-51
2023/01/27 10:05:42;;;;;;;7.03;4.97;;;;;;;;;;5041549;28;20237;-53
2023/01/27 10:08:15;;;;;;;4.60;4.20;;;;;;;;;;5036329;28;20232;-53
2023/01/27 10:10:48;;;;;;;4.80;4.20;;;;;;;;;;5046060;28;20330;-52
2023/01/27 10:13:23;;;;;;;6.80;4.67;;;;;;;;;;5045798;28;20309;-53
2023/01/27 10:15:57;;;;;;;5.17;4.23;;;;;;;;;;5039812;28;20265;-51
2023/01/27 10:18:31;;;;;;;5.37;4.87;;;;;;;;;;5039060;28;20231;-53
2023/01/27 10:21:00;;;;;;;3.87;3.47;;;;;;;;;;5037101;28;20235;-53
2023/01/27 10:23:33;;;;;;;4.33;3.93;;;;;;;;;;5044648;28;20242;-52
2023/01/27 10:26:08;;;;;;;5.13;3.87;;;;;;;;;;5031827;28;20234;-53
2023/01/27 10:28:34;;;;;;;4.43;3.40;;;;;;;;;;5040125;28;20235;-52
2023/01/27 10:31:01;;;;;;;4.77;4.37;;;;;;;;;;5030182;28;20597;-52
2023/01/27 10:33:37;;;;;;;4.37;3.97;;;;;;;;;;5035145;28;20235;-53
2023/01/27 10:36:07;;;;;;;7.60;4.43;;;;;;;;;;5036729;28;20245;-52
2023/01/27 10:38:37;;;;;;;4.60;4.20;;;;;;;;;;5042986;28;20345;-52
2023/01/27 10:41:10;;;;;;;5.53;4.17;;;;;;;;;;5042981;28;20237;-52
2023/01/27 10:43:42;;;;;;;3.83;3.40;;;;;;;;;;5039772;28;20239;-52
2023/01/27 10:46:15;;;;;;;4.80;3.43;;;;;;;;;;5027869;28;20305;-53
2023/01/27 10:48:45;;;;;;;4.63;4.23;;;;;;;;;;5037831;28;20245;-53
2023/01/27 10:51:14;;;;;;;5.90;4.67;;;;;;;;;;5039130;28;21079;-52
2023/01/27 10:53:47;;;;;;;4.07;3.67;;;;;;;;;;5043598;28;20232;-52
2023/01/27 10:56:17;;;;;;;4.33;3.70;;;;;;;;;;5036561;28;20260;-52
2023/01/27 10:58:47;;;;;;;4.03;3.40;;;;;;;;;;5038630;28;20259;-53
2023/01/27 11:01:16;;;;;;;3.97;3.50;;;;;;;;;;5037045;28;20740;-54
2023/01/27 11:03:47;;;;;;;4.27;3.73;;;;;;;;;;5038801;28;20236;-52
2023/01/27 11:06:15;;;;;;;3.90;3.40;;;;;;;;;;5034205;28;20311;-53
2023/01/27 11:08:44;;;;;;;4.87;3.33;;;;;;;;;;5033327;28;20240;-52
2023/01/27 11:14:03;;;;;;;3.90;3.23;;;;;;;;;;5040175;28;20860;-52
2023/01/27 11:16:32;;;;;;;4.63;3.40;;;;;;;;;;5037797;28;20318;-53
2023/01/27 11:19:02;;;;;;;5.27;3.23;;;;;;;;;;5042595;28;20237;-52
2023/01/27 11:21:31;;;;;;;5.73;4.43;;;;;;;;;;5030522;28;20267;-53
2023/01/27 11:23:59;;;;;;;4.13;3.30;;;;;;;;;;5044891;28;20239;-54
2023/01/27 11:26:30;;;;;;;5.47;4.43;;;;;;;;;;5043444;28;20261;-53
2023/01/27 11:29:00;;;;;;;6.40;3.00;;;;;;;;;;5042405;28;20232;-53
2023/01/27 11:31:31;;;;;;;5.40;3.63;;;;;;;;;;5033284;28;20238;-54
2023/01/27 11:34:03;;;;;;;5.50;2.87;;;;;;;;;;5042965;28;20603;-52
2023/01/27 11:36:32;;;;;;;5.37;3.27;;;;;;;;;;5044145;28;20242;-53
2023/01/27 11:39:00;;;;;;;4.30;3.60;;;;;;;;;;5041757;28;20617;-52
2023/01/27 11:41:26;;;;;;;6.93;4.23;;;;;;;;;;5033034;28;20255;-53
2023/01/27 11:43:53;;;;;;;3.70;3.37;;;;;;;;;;5036151;28;20242;-55
2023/01/27 11:46:21;;;;;;;3.93;3.60;;;;;;;;;;5039535;28;20238;-53
2023/01/27 11:48:49;;;;;;;4.63;3.93;;;;;;;;;;5049617;28;20238;-53
2023/01/27 11:51:19;;;;;;;4.73;3.40;;;;;;;;;;5044314;28;20230;-52
2023/01/27 11:53:48;;;;;;;4.73;3.53;;;;;;;;;;5030394;28;20235;-52
2023/01/27 11:56:17;;;;;;;8.60;3.83;;;;;;;;;;5039287;28;20871;-53
2023/01/27 11:58:47;;;;;;;3.57;3.27;;;;;;;;;;5030462;28;20235;-54
2023/01/27 12:01:16;;;;;;;4.57;3.97;;;;;;;;;;5036063;28;20236;-52
2023/01/27 12:03:46;;;;;;;4.43;3.23;;;;;;;;;;5031724;28;20255;-53
2023/01/27 12:06:14;;;;;;;5.70;3.77;;;;;;;;;;5031033;28;20767;-52
2023/01/27 12:08:42;;;;;;;5.87;3.70;;;;;;;;;;5036893;28;20229;-51
2023/01/27 12:11:33;;;;;;;3.77;2.93;;;;;;;;;;5021737;28;20310;-52
2023/01/27 12:14:01;;;;;;;4.47;3.60;;;;;;;;;;5018185;28;20722;-53
2023/01/27 12:16:35;;;;;;;4.73;4.23;;;;;;;;;;5034495;28;20243;-53
2023/01/27 12:19:03;;;;;;;4.07;3.67;;;;;;;;;;5044059;28;20246;-52
2023/01/27 12:21:42;;;;;;;6.00;3.93;;;;;;;;;;5040776;28;20232;-53
2023/01/27 12:24:15;;;;;;;5.27;4.20;;;;;;;;;;5038267;28;20327;-53
2023/01/27 12:26:44;;;;;;;6.40;3.63;;;;;;;;;;5038559;28;20254;-55
2023/01/27 12:29:17;;;;;;;7.27;5.17;;;;;;;;;;5032826;28;20366;-54
2023/01/27 12:31:45;;;;;;;10.60;5.13;;;;;;;;;;5026649;28;20237;-51
2023/01/27 12:34:22;;;;;;;6.23;4.80;;;;;;;;;;5035740;28;21270;-53
2023/01/27 12:36:49;;;;;;;7.93;5.47;;;;;;;;;;5040191;28;20731;-53
2023/01/27 12:39:26;;;;;;;5.70;5.03;;;;;;;;;;5041729;28;20236;-52
2023/01/27 12:41:52;;;;;;;8.20;4.77;;;;;;;;;;5031487;28;20238;-52
2023/01/27 12:44:21;;;;;;;5.40;4.90;;;;;;;;;;5042185;28;20327;-52
2023/01/27 12:46:56;;;;;;;6.00;4.70;;;;;;;;;;5029446;28;20703;-53
2023/01/27 12:49:22;;;;;;;6.37;4.80;;;;;;;;;;5029571;28;20704;-53
2023/01/27 12:51:51;;;;;;;5.53;3.93;;;;;;;;;;5038722;28;20309;-52
2023/01/27 12:54:21;;;;;;;5.67;4.50;;;;;;;;;;5035875;28;20717;-53
2023/01/27 12:56:48;;;;;;;6.67;3.60;;;;;;;;;;5040821;28;20235;-53
2023/01/27 12:59:16;;;;;;;6.37;4.60;;;;;;;;;;5039581;28;20236;-51
2023/01/27 13:01:45;;;;;;;7.27;4.57;;;;;;;;;;5040584;28;20246;-52
2023/01/27 13:04:15;;;;;;;8.57;4.33;;;;;;;;;;5040721;28;20702;-51
2023/01/27 13:06:43;;;;;;;4.73;3.97;;;;;;;;;;5030594;28;20232;-53
2023/01/27 13:09:22;;;;;;;7.37;3.93;;;;;;;;;;5041353;28;20264;-51
2023/01/27 13:11:49;;;;;;;4.20;3.80;;;;;;;;;;5028887;28;20234;-54
2023/01/27 13:14:16;;;;;;;6.87;4.90;;;;;;;;;;5030718;28;20662;-54
2023/01/27 13:16:49;;;;;;;6.50;4.17;;;;;;;;;;5036447;28;20243;-51
2023/01/27 13:19:17;;;;;;;3.57;2.77;;;;;;;;;;5032047;28;20719;-52
2023/01/27 13:21:44;;;;;;;6.57;4.20;;;;;;;;;;5037098;28;20331;-52
2023/01/27 13:24:12;;;;;;;6.00;3.70;;;;;;;;;;5042226;28;20250;-51
2023/01/27 13:26:40;;;;;;;4.83;3.00;;;;;;;;;;5042971;28;20233;-53
2023/01/27 13:29:11;;;;;;;3.17;2.77;;;;;;;;;;5034627;28;20239;-52
2023/01/27 13:31:41;;;;;;;3.63;2.80;;;;;;;;;;5040920;28;20249;-51
2023/01/27 13:34:15;;;;;;;3.77;2.97;;;;;;;;;;5036024;28;20235;-52
2023/01/27 13:36:44;;;;;;;8.47;3.03;;;;;;;;;;5032206;28;20238;-52
2023/01/27 13:39:14;;;;;;;3.57;3.27;;;;;;;;;;5029043;28;20247;-53
2023/01/27 13:41:44;;;;;;;4.57;2.37;;;;;;;;;;5038499;28;20252;-52
2023/01/27 13:44:14;;;;;;;5.37;3.00;;;;;;;;;;5036460;28;20301;-52
2023/01/27 13:46:43;;;;;;;3.30;2.63;;;;;;;;;;5043993;28;20245;-52
2023/01/27 13:49:17;;;;;;;8.13;3.20;;;;;;;;;;5043128;28;20258;-52
2023/01/27 13:51:43;;;;;;;3.37;2.90;;;;;;;;;;5045188;28;20262;-52
2023/01/27 13:54:10;;;;;;;6.53;3.23;;;;;;;;;;5050847;28;20239;-57
2023/01/27 13:56:43;;;;;;;3.67;2.53;;;;;;;;;;5046516;28;20242;-52
2023/01/27 13:59:19;;;;;;;3.53;1.97;;;;;;;;;;5039073;28;20352;-51
2023/01/27 14:01:50;;;;;;;5.40;2.83;;;;;;;;;;5040459;28;20238;-54
2023/01/27 14:04:30;;;;;;;5.17;3.00;;;;;;;;;;5050387;28;20237;-54
2023/01/27 14:07:03;;;;;;;3.33;2.30;;;;;;;;;;5047939;28;20250;-55
2023/01/27 14:09:38;;;;;;;4.20;2.07;;;;;;;;;;5044128;28;20290;-53
2023/01/27 14:12:13;;;;;;;2.60;2.20;;;;;;;;;;5051626;28;20236;-52
2023/01/27 14:14:46;;;;;;;2.77;2.30;;;;;;;;;;5041763;28;20285;-54
2023/01/27 14:17:25;;;;;;;5.37;2.43;;;;;;;;;;5050960;28;20264;-53
2023/01/27 14:19:59;;;;;;;3.90;2.50;;;;;;;;;;5044812;28;20231;-54
2023/01/27 14:22:31;;;;;;;3.13;2.40;;;;;;;;;;5029346;28;20338;-52
2023/01/27 14:25:02;;;;;;;3.07;2.40;;;;;;;;;;5033364;28;20282;-54
2023/01/27 14:27:31;;;;;;;3.20;2.17;;;;;;;;;;5039426;28;20232;-52
2023/01/27 14:30:02;;;;;;;2.77;1.87;;;;;;;;;;5046726;28;20255;-54
2023/01/27 14:32:31;;;;;;;5.00;2.13;;;;;;;;;;5041741;28;20316;-52
2023/01/27 14:35:14;;;;;;;4.50;2.53;;;;;;;;;;5039433;28;20795;-54
2023/01/27 14:37:45;;;;;;;3.80;2.13;;;;;;;;;;5039988;28;20322;-52
2023/01/27 14:40:15;;;;;;;2.90;2.33;;;;;;;;;;5035848;28;20664;-54
2023/01/27 14:42:43;;;;;;;5.13;2.03;;;;;;;;;;5042661;28;20233;-52
2023/01/27 14:45:17;;;;;;;2.83;2.27;;;;;;;;;;5044677;28;20322;-51
2023/01/27 14:47:48;;;;;;;3.43;2.20;;;;;;;;;;5037576;28;20235;-51
2023/01/27 14:50:21;;;;;;;4.70;2.37;;;;;;;;;;5039710;28;20561;-53
2023/01/27 14:52:52;;;;;;;4.80;2.10;;;;;;;;;;5043727;28;20265;-53
2023/01/27 14:55:30;;;;;;;6.40;2.80;;;;;;;;;;5042879;28;20232;-53
2023/01/27 14:58:01;;;;;;;5.53;2.60;;;;;;;;;;5043163;28;20234;-51
2023/01/27 15:00:36;;;;;;;2.73;2.40;;;;;;;;;;5035587;28;20243;-55
2023/01/27 15:03:10;;;;;;;2.50;2.20;;;;;;;;;;5037179;28;20227;-52
2023/01/27 15:05:40;;;;;;;2.73;2.40;;;;;;;;;;5033640;28;20326;-51
2023/01/27 15:08:10;;;;;;;5.73;2.60;;;;;;;;;;5044960;28;20668;-52
2023/01/27 15:10:39;;;;;;;3.57;2.43;;;;;;;;;;5026245;28;20638;-53
2023/01/27 15:13:29;;;;;;;4.93;3.20;;;;;;;;;;5030158;28;20321;-52
2023/01/27 15:16:02;;;;;;;6.67;2.97;;;;;;;;;;5021880;28;20710;-53
2023/01/27 15:18:40;;;;;;;7.43;2.90;;;;;;;;;;5036000;28;20236;-52
2023/01/27 15:21:22;;;;;;;4.90;3.30;;;;;;;;;;5033226;28;20239;-52
2023/01/27 15:24:01;;;;;;;8.17;4.57;;;;;;;;;;5034866;28;20234;-52
2023/01/27 15:26:28;;;;;;;8.17;3.20;;;;;;;;;;5038733;28;20231;-54